Asukamaru — JG5536 — position and weather

sailwx.info

Track history (hours):
 
Tides and Currents Weather Stations Pressure Air Temp Water Temp Dewpoint Dewpoint Depression Visibility Wind Speed Wind Dir Waves Ship Positions

Asukamaru

Last reported at 2016-Sep-25 11:33 UTC. Time now 2016-Sep-25 12:20 UTC.
Position N 35°38' E 139°45'.

Length 31 m; draft 3 m.

Type: Tug. MMSI: 431001145.

Date/timePositionNaut miles runAvg speedWind from/ knotsBaromVisibWave heightAir tempDewpointWater temp
2016-Sep-25 11:33N 35°38' E 139°45'0 0.0
2016-Sep-25 10:33N 35°38' E 139°45'0 0.1
2016-Sep-25 09:33N 35°38' E 139°46'0 0.1
2016-Sep-25 07:33N 35°38' E 139°45'0 0.0
2016-Sep-25 04:33N 35°38' E 139°46'3 0.6
2016-Sep-25 00:33N 35°36' E 139°46'3 1.4
2016-Sep-24 22:33N 35°34' E 139°49'5 5.1
2016-Sep-24 21:34N 35°38' E 139°45'0 0.0
2016-Sep-24 19:33N 35°38' E 139°45'0 0.0
2016-Sep-24 18:33N 35°38' E 139°45'0 0.0
2016-Sep-24 17:33N 35°38' E 139°45'0 0.0
2016-Sep-24 16:33N 35°38' E 139°45'0 0.0
2016-Sep-24 14:33N 35°38' E 139°45'0 0.0
2016-Sep-24 12:33N 35°38' E 139°45'2 1.0
2016-Sep-24 10:33N 35°37' E 139°47'3 3.3
2016-Sep-24 09:33N 35°34' E 139°50'5 0.9
2016-Sep-24 03:33N 35°38' E 139°45'2 1.7
2016-Sep-24 02:33N 35°37' E 139°47'0 0.5
2016-Sep-24 01:33N 35°36' E 139°47'0 0.0
2016-Sep-24 00:33N 35°36' E 139°47'2 0.4
2016-Sep-23 19:33N 35°38' E 139°45'0 0.0
2016-Sep-23 17:33N 35°38' E 139°45'0 0.0
2016-Sep-23 16:32N 35°38' E 139°45'0 0.0
2016-Sep-23 15:33N 35°38' E 139°45'0 0.0
2016-Sep-23 13:33N 35°38' E 139°45'0 0.0
2016-Sep-23 09:33N 35°38' E 139°45'1 0.3
2016-Sep-23 06:33N 35°37' E 139°46'1 0.4
2016-Sep-23 04:33N 35°38' E 139°45'2 2.1
2016-Sep-23 03:33N 35°36' E 139°47'3 3.0
2016-Sep-23 02:34N 35°34' E 139°49'3 3.2
2016-Sep-23 01:34N 35°36' E 139°46'2 2.2
2016-Sep-23 00:33N 35°38' E 139°45'0 0.0
2016-Sep-22 23:33N 35°38' E 139°45'0 0.0
2016-Sep-22 20:33N 35°38' E 139°45'0 0.0
2016-Sep-22 12:33N 35°38' E 139°45'0 0.0
2016-Sep-22 04:33N 35°38' E 139°45'0 0.0
2016-Sep-22 03:33N 35°38' E 139°45'2 0.5
2016-Sep-22 00:33N 35°37' E 139°46'1 1.3
2016-Sep-21 23:33N 35°36' E 139°47'1 1.3
2016-Sep-21 22:33N 35°37' E 139°46'2 0.5
2016-Sep-21 19:33N 35°38' E 139°45'0 0.0
2016-Sep-21 16:33N 35°38' E 139°45'0 0.0
2016-Sep-21 09:33N 35°38' E 139°45'0 0.0
2016-Sep-21 08:32N 35°38' E 139°45'3 0.9
2016-Sep-21 05:33N 35°36' E 139°47'3 1.3
2016-Sep-21 03:33N 35°38' E 139°45'0 0.0
2016-Sep-21 02:33N 35°38' E 139°45'0 0.0
2016-Sep-20 17:33N 35°38' E 139°45'0 0.0
2016-Sep-20 14:33N 35°38' E 139°45'0 0.0
2016-Sep-20 13:33N 35°38' E 139°45'0 0.0
2016-Sep-20 10:33N 35°38' E 139°45'3 1.5
2016-Sep-20 08:34N 35°36' E 139°47'3 2.5
2016-Sep-20 07:34N 35°38' E 139°46'0 0.4
2016-Sep-20 06:33N 35°38' E 139°45'0 0.0
2016-Sep-20 02:33N 35°38' E 139°45'0 0.0
2016-Sep-19 23:33N 35°38' E 139°45'0 0.0
2016-Sep-19 19:33N 35°38' E 139°45'0 0.0
2016-Sep-19 18:33N 35°38' E 139°45'0 0.0
2016-Sep-19 16:33N 35°38' E 139°45'0 0.0
2016-Sep-19 14:33N 35°38' E 139°45'0 0.0
2016-Sep-19 13:33N 35°38' E 139°45'0 0.0
2016-Sep-19 12:33N 35°38' E 139°45'0 0.0
2016-Sep-19 11:33N 35°38' E 139°45'0 0.0
2016-Sep-19 09:33N 35°38' E 139°45'0 0.0
2016-Sep-19 07:33N 35°38' E 139°45'0 0.0
2016-Sep-19 06:33N 35°38' E 139°45'3 0.9
2016-Sep-19 03:33N 35°36' E 139°47'1 0.6
2016-Sep-19 02:33N 35°36' E 139°46'0 0.0
2016-Sep-19 00:33N 35°36' E 139°46'3 0.5
2016-Sep-18 19:33N 35°38' E 139°45'0 0.0
2016-Sep-18 15:33N 35°38' E 139°45'0 0.0
2016-Sep-18 14:33N 35°38' E 139°45'0 0.0
2016-Sep-18 10:33N 35°38' E 139°45'0 0.0
2016-Sep-18 09:33N 35°38' E 139°45'0 0.0
2016-Sep-18 02:33N 35°38' E 139°45'0 0.0
2016-Sep-18 01:33N 35°38' E 139°45'0 0.0
2016-Sep-18 00:33N 35°38' E 139°45'0 0.0
2016-Sep-17 22:33N 35°38' E 139°45'0 0.0
2016-Sep-17 21:33N 35°38' E 139°45'0 0.0
2016-Sep-17 20:33N 35°38' E 139°45'0 0.0
2016-Sep-17 19:16N 35°38' E 139°45'0 0.0
2016-Sep-17 13:33N 35°38' E 139°45'0 0.0
2016-Sep-17 12:33N 35°38' E 139°45'0 0.0
2016-Sep-17 10:33N 35°38' E 139°45'0 0.0
2016-Sep-17 09:33N 35°38' E 139°45'0 0.0
2016-Sep-17 08:33N 35°38' E 139°45'0 0.0
2016-Sep-17 07:33N 35°38' E 139°45'0 0.0
2016-Sep-17 05:32N 35°38' E 139°45'0 0.0
2016-Sep-17 04:33N 35°38' E 139°46'0 0.0
2016-Sep-17 00:33N 35°38' E 139°45'0 0.0
2016-Sep-16 17:33N 35°38' E 139°45'0 0.0
2016-Sep-16 15:33N 35°38' E 139°45'0 0.0
2016-Sep-16 12:33N 35°38' E 139°45'2 0.5
2016-Sep-16 09:34N 35°37' E 139°46'2 0.8
2016-Sep-16 07:33N 35°38' E 139°45'0 0.0
2016-Sep-16 03:33N 35°38' E 139°45'0 0.0
2016-Sep-16 02:33N 35°38' E 139°46'2 1.1
2016-Sep-16 00:34N 35°37' E 139°48'0 0.0
2016-Sep-15 22:33N 35°37' E 139°47'1 0.7
2016-Sep-15 21:33N 35°36' E 139°47'3 2.8
2016-Sep-15 20:33N 35°38' E 139°45'0 0.0
2016-Sep-15 18:33N 35°38' E 139°45'0 0.0
2016-Sep-15 12:33N 35°38' E 139°45'  
Track history (hours):
 
Tides and Currents Weather Stations Pressure Air Temp Water Temp Dewpoint Dewpoint Depression Visibility Wind Speed Wind Dir Waves Ship Positions

Asukamaru

Last reported at 2016-Sep-25 11:33 UTC. Time now 2016-Sep-25 12:20 UTC.
Position N 35°38' E 139°45'.

Length 31 m; draft 3 m.

Type: Tug. MMSI: 431001145.

Date/timePositionNaut miles runAvg speedWind from/ knotsBaromVisibWave heightAir tempDewpointWater temp
2016-Sep-25 11:33N 35°38' E 139°45'0 0.0
2016-Sep-25 10:33N 35°38' E 139°45'0 0.1
2016-Sep-25 09:33N 35°38' E 139°46'0 0.1
2016-Sep-25 07:33N 35°38' E 139°45'0 0.0
2016-Sep-25 04:33N 35°38' E 139°46'3 0.6
2016-Sep-25 00:33N 35°36' E 139°46'3 1.4
2016-Sep-24 22:33N 35°34' E 139°49'5 5.1
2016-Sep-24 21:34N 35°38' E 139°45'0 0.0
2016-Sep-24 19:33N 35°38' E 139°45'0 0.0
2016-Sep-24 18:33N 35°38' E 139°45'0 0.0
2016-Sep-24 17:33N 35°38' E 139°45'0 0.0
2016-Sep-24 16:33N 35°38' E 139°45'0 0.0
2016-Sep-24 14:33N 35°38' E 139°45'0 0.0
2016-Sep-24 12:33N 35°38' E 139°45'2 1.0
2016-Sep-24 10:33N 35°37' E 139°47'3 3.3
2016-Sep-24 09:33N 35°34' E 139°50'5 0.9
2016-Sep-24 03:33N 35°38' E 139°45'2 1.7
2016-Sep-24 02:33N 35°37' E 139°47'0 0.5
2016-Sep-24 01:33N 35°36' E 139°47'0 0.0
2016-Sep-24 00:33N 35°36' E 139°47'2 0.4
2016-Sep-23 19:33N 35°38' E 139°45'0 0.0
2016-Sep-23 17:33N 35°38' E 139°45'0 0.0
2016-Sep-23 16:32N 35°38' E 139°45'0 0.0
2016-Sep-23 15:33N 35°38' E 139°45'0 0.0
2016-Sep-23 13:33N 35°38' E 139°45'0 0.0
2016-Sep-23 09:33N 35°38' E 139°45'1 0.3
2016-Sep-23 06:33N 35°37' E 139°46'1 0.4
2016-Sep-23 04:33N 35°38' E 139°45'2 2.1
2016-Sep-23 03:33N 35°36' E 139°47'3 3.0
2016-Sep-23 02:34N 35°34' E 139°49'3 3.2
2016-Sep-23 01:34N 35°36' E 139°46'2 2.2
2016-Sep-23 00:33N 35°38' E 139°45'0 0.0
2016-Sep-22 23:33N 35°38' E 139°45'0 0.0
2016-Sep-22 20:33N 35°38' E 139°45'0 0.0
2016-Sep-22 12:33N 35°38' E 139°45'0 0.0
2016-Sep-22 04:33N 35°38' E 139°45'0 0.0
2016-Sep-22 03:33N 35°38' E 139°45'2 0.5
2016-Sep-22 00:33N 35°37' E 139°46'1 1.3
2016-Sep-21 23:33N 35°36' E 139°47'1 1.3
2016-Sep-21 22:33N 35°37' E 139°46'2 0.5
2016-Sep-21 19:33N 35°38' E 139°45'0 0.0
2016-Sep-21 16:33N 35°38' E 139°45'0 0.0
2016-Sep-21 09:33N 35°38' E 139°45'0 0.0
2016-Sep-21 08:32N 35°38' E 139°45'3 0.9
2016-Sep-21 05:33N 35°36' E 139°47'3 1.3
2016-Sep-21 03:33N 35°38' E 139°45'0 0.0
2016-Sep-21 02:33N 35°38' E 139°45'0 0.0
2016-Sep-20 17:33N 35°38' E 139°45'0 0.0
2016-Sep-20 14:33N 35°38' E 139°45'0 0.0
2016-Sep-20 13:33N 35°38' E 139°45'0 0.0
2016-Sep-20 10:33N 35°38' E 139°45'3 1.5
2016-Sep-20 08:34N 35°36' E 139°47'3 2.5
2016-Sep-20 07:34N 35°38' E 139°46'0 0.4
2016-Sep-20 06:33N 35°38' E 139°45'0 0.0
2016-Sep-20 02:33N 35°38' E 139°45'0 0.0
2016-Sep-19 23:33N 35°38' E 139°45'0 0.0
2016-Sep-19 19:33N 35°38' E 139°45'0 0.0
2016-Sep-19 18:33N 35°38' E 139°45'0 0.0
2016-Sep-19 16:33N 35°38' E 139°45'0 0.0
2016-Sep-19 14:33N 35°38' E 139°45'0 0.0
2016-Sep-19 13:33N 35°38' E 139°45'0 0.0
2016-Sep-19 12:33N 35°38' E 139°45'0 0.0
2016-Sep-19 11:33N 35°38' E 139°45'0 0.0
2016-Sep-19 09:33N 35°38' E 139°45'0 0.0
2016-Sep-19 07:33N 35°38' E 139°45'0 0.0
2016-Sep-19 06:33N 35°38' E 139°45'3 0.9
2016-Sep-19 03:33N 35°36' E 139°47'1 0.6
2016-Sep-19 02:33N 35°36' E 139°46'0 0.0
2016-Sep-19 00:33N 35°36' E 139°46'3 0.5
2016-Sep-18 19:33N 35°38' E 139°45'0 0.0
2016-Sep-18 15:33N 35°38' E 139°45'0 0.0
2016-Sep-18 14:33N 35°38' E 139°45'0 0.0
2016-Sep-18 10:33N 35°38' E 139°45'0 0.0
2016-Sep-18 09:33N 35°38' E 139°45'0 0.0
2016-Sep-18 02:33N 35°38' E 139°45'0 0.0
2016-Sep-18 01:33N 35°38' E 139°45'0 0.0
2016-Sep-18 00:33N 35°38' E 139°45'0 0.0
2016-Sep-17 22:33N 35°38' E 139°45'0 0.0
2016-Sep-17 21:33N 35°38' E 139°45'0 0.0
2016-Sep-17 20:33N 35°38' E 139°45'0 0.0
2016-Sep-17 19:16N 35°38' E 139°45'0 0.0
2016-Sep-17 13:33N 35°38' E 139°45'0 0.0
2016-Sep-17 12:33N 35°38' E 139°45'0 0.0
2016-Sep-17 10:33N 35°38' E 139°45'0 0.0
2016-Sep-17 09:33N 35°38' E 139°45'0 0.0
2016-Sep-17 08:33N 35°38' E 139°45'0 0.0
2016-Sep-17 07:33N 35°38' E 139°45'0 0.0
2016-Sep-17 05:32N 35°38' E 139°45'0 0.0
2016-Sep-17 04:33N 35°38' E 139°46'0 0.0
2016-Sep-17 00:33N 35°38' E 139°45'0 0.0
2016-Sep-16 17:33N 35°38' E 139°45'0 0.0
2016-Sep-16 15:33N 35°38' E 139°45'0 0.0
2016-Sep-16 12:33N 35°38' E 139°45'2 0.5
2016-Sep-16 09:34N 35°37' E 139°46'2 0.8
2016-Sep-16 07:33N 35°38' E 139°45'0 0.0
2016-Sep-16 03:33N 35°38' E 139°45'0 0.0
2016-Sep-16 02:33N 35°38' E 139°46'2 1.1
2016-Sep-16 00:34N 35°37' E 139°48'0 0.0
2016-Sep-15 22:33N 35°37' E 139°47'1 0.7
2016-Sep-15 21:33N 35°36' E 139°47'3 2.8
2016-Sep-15 20:33N 35°38' E 139°45'0 0.0
2016-Sep-15 18:33N 35°38' E 139°45'0 0.0
2016-Sep-15 12:33N 35°38' E 139°45'  

Dump ship's entire track history